Hlavní strana
METAR-TAF:

METAR-TAF

Letiště :

Augsburg, Německo

zeměpisná šířka: 48-26N, zeměpisná délka: 010-56E, výška: 461 m

Aktuální stav počasí

Zpráva byla vytvořena před 20 hodinami a 36 minutami, v 14:50 UTC
Severní vítr 4 kt
Teplota -2°C
Vlhkost vzduchu 86%
Tlak 1014 hPa
Viditelnost: 5000 m
Oblačno až skoro zataženo ve výšce 1200 ft
Zataženo ve výšce 2100 ft
kouřmo

METAR: EDMA 201450Z 36004KT 5000 BR BKN012 OVC021 M02/M04 Q1014

Čas: 12:26 (11:26 UTC)

Předpověď počasí

Zpráva byla vytvořena před 21 hodinami a 26 minutami, v 14:00 UTC
Předpověď platná od 20 v 15 UTC do 20 v 24 UTC
Severoseverovýchodní vítr 5 kt
Viditelnost: 6000 m
Oblačno až skoro zataženo ve výšce 2000 ft
Pravděpodobnost 30% :
Dočasný
od 20 v 15 UTC do 20 v 22 UTC
Viditelnost: 4000 m
slabé sněžení

TAF: EDMA 201400Z 2015/2024 02005KT 6000 BKN020 PROB30 TEMPO 2015/2022 4000 -SN

Stav a předpovědi počasí z více než 4 000 letišť (zprávy METAR a TAF).

Červené a žluté tečky na mapě představují dostupné meteorologické stanice.

Když kurzor umístíte na tečku, zobrazí se název stanice.

Pak kliknutím zobrazíte stav a předpověď počasí.

Chcete-li změnit mapu, kliknutím na zelené tlačítko se znaménkem +mapu přiblížíte, kliknutím na zelené tlačítko se znaménkem – mapu oddálíte a kliknutím na zelené šipky přejdete na sousední mapy.


METAR-TAF: